createdAt,value
2022-10-25T00:04:22.579Z,98257.55
2022-10-25T00:09:26.951Z,98267.12
2022-10-25T00:14:31.247Z,98265.16
2022-10-25T00:19:35.433Z,98271.13
2022-10-25T00:24:39.547Z,98270.74
2022-10-25T00:29:43.509Z,98274.42
2022-10-25T00:34:47.670Z,98279.59
2022-10-25T00:39:51.686Z,98282.73
2022-10-25T00:44:57.117Z,98276.29
2022-10-25T00:50:04.046Z,98280.30
2022-10-25T00:55:10.338Z,98278.41
2022-10-25T01:00:15.281Z,98277.93
2022-10-25T01:05:20.376Z,98277.48
2022-10-25T01:10:24.868Z,98274.41
2022-10-25T01:15:34.827Z,98269.94
2022-10-25T01:20:53.506Z,98252.75
2022-10-25T01:26:12.582Z,98252.77
2022-10-25T01:31:23.480Z,98254.80
2022-10-25T01:36:35.478Z,98256.67
2022-10-25T01:41:43.599Z,98264.83
2022-10-25T01:46:51.207Z,98262.00
2022-10-25T01:51:55.489Z,98263.66
2022-10-25T01:57:09.198Z,98265.92
2022-10-25T02:02:16.807Z,98267.42
2022-10-25T02:07:24.100Z,98268.91
2022-10-25T02:12:31.720Z,98268.30
2022-10-25T02:17:38.459Z,98268.06
2022-10-25T02:22:43.189Z,98267.11
2022-10-25T02:27:48.044Z,98265.56
2022-10-25T02:32:52.467Z,98263.45
2022-10-25T02:37:56.616Z,98265.80
2022-10-25T02:43:00.898Z,98265.25
2022-10-25T02:48:05.235Z,98257.48
2022-10-25T02:53:09.262Z,98254.19
2022-10-25T02:58:13.297Z,98263.91
2022-10-25T03:03:17.316Z,98268.54
2022-10-25T03:08:22.083Z,98268.94
2022-10-25T03:13:26.321Z,98269.95
2022-10-25T03:18:30.434Z,98275.29
2022-10-25T03:23:34.796Z,98270.35
2022-10-25T03:28:38.988Z,98272.38
2022-10-25T03:33:43.239Z,98280.94
2022-10-25T03:38:47.388Z,98286.42
2022-10-25T03:43:51.727Z,98288.31
2022-10-25T03:48:55.727Z,98288.70
2022-10-25T03:53:59.937Z,98292.23
2022-10-25T03:59:04.085Z,98291.77
2022-10-25T04:04:08.309Z,98299.20
2022-10-25T04:09:12.319Z,98296.31
2022-10-25T04:14:16.450Z,98290.67
2022-10-25T04:19:20.578Z,98295.30
2022-10-25T04:24:24.707Z,98295.38
2022-10-25T04:29:29.246Z,98298.51
2022-10-25T04:34:33.677Z,98300.23
2022-10-25T04:39:37.907Z,98300.79
2022-10-25T04:44:42.055Z,98300.55
2022-10-25T04:49:46.376Z,98292.63
2022-10-25T04:54:50.826Z,98292.00
2022-10-25T04:59:57.422Z,98290.27
2022-10-25T05:05:01.761Z,98292.47
2022-10-25T05:10:06.667Z,98294.98
2022-10-25T05:15:11.547Z,98299.61
2022-10-25T05:20:15.912Z,98299.68
2022-10-25T05:25:20.205Z,98300.92
2022-10-25T05:30:24.428Z,98302.42
2022-10-25T05:35:28.457Z,98306.02
2022-10-25T05:40:32.503Z,98310.25
2022-10-25T05:45:36.941Z,98314.35
2022-10-25T05:55:46.096Z,98328.61
2022-10-25T06:00:50.599Z,98347.91
2022-10-25T06:05:55.196Z,98355.20
2022-10-25T06:11:02.972Z,98357.25
2022-10-25T06:16:08.207Z,98355.92
2022-10-25T06:21:13.247Z,98353.02
2022-10-25T06:26:18.376Z,98351.37
2022-10-25T06:31:22.488Z,98352.45
2022-10-25T06:36:27.569Z,98356.06
2022-10-25T06:41:32.215Z,98362.18
2022-10-25T06:46:57.866Z,98368.45
2022-10-25T06:52:00.567Z,98378.96
2022-10-25T06:57:04.726Z,98392.52
2022-10-25T07:02:09.806Z,98391.66
2022-10-25T07:07:14.849Z,98397.01
2022-10-25T07:12:19.057Z,98402.89
2022-10-25T07:17:23.300Z,98401.77
2022-10-25T07:22:27.527Z,98390.23
2022-10-25T07:27:33.566Z,98396.75
2022-10-25T07:32:41.510Z,98404.36
2022-10-25T07:37:47.304Z,98404.59
2022-10-25T07:42:51.517Z,98406.39
2022-10-25T07:47:55.748Z,98403.02
2022-10-25T07:52:59.978Z,98401.30
2022-10-25T07:58:04.380Z,98401.38
2022-10-25T08:03:08.508Z,98402.71
2022-10-25T08:08:12.668Z,98406.78
2022-10-25T08:13:17.150Z,98419.89
2022-10-25T08:18:21.453Z,98434.17
2022-10-25T08:23:25.584Z,98441.70
2022-10-25T08:28:30.867Z,98443.69
2022-10-25T08:33:35.708Z,98434.98
2022-10-25T08:38:39.907Z,98432.15
2022-10-25T08:43:52.767Z,98428.15
2022-10-25T08:49:04.279Z,98427.12
2022-10-25T08:54:17.077Z,98429.31
2022-10-25T08:59:25.831Z,98433.16
2022-10-25T09:04:30.817Z,98435.42
2022-10-25T09:09:41.769Z,98434.02
2022-10-25T09:14:47.106Z,98430.10
2022-10-25T09:20:00.950Z,98427.74
2022-10-25T09:25:08.399Z,98430.80
2022-10-25T09:30:13.119Z,98431.81
2022-10-25T09:35:18.842Z,98424.82
2022-10-25T09:40:24.384Z,98435.34
2022-10-25T09:45:31.557Z,98434.48
2022-10-25T09:50:40.657Z,98428.48
2022-10-25T09:55:47.929Z,98428.05
2022-10-25T10:00:52.610Z,98427.34
2022-10-25T10:05:58.770Z,98428.75
2022-10-25T10:11:04.729Z,98428.27
2022-10-25T10:16:18.227Z,98431.40
2022-10-25T10:21:23.728Z,98439.89
2022-10-25T10:26:31.312Z,98433.85
2022-10-25T10:31:36.627Z,98429.30
2022-10-25T10:36:42.278Z,98437.00
2022-10-25T10:41:56.177Z,98439.73
2022-10-25T10:47:00.816Z,98438.02
2022-10-25T10:52:05.771Z,98436.21
2022-10-25T10:57:22.697Z,98431.50
2022-10-25T11:02:29.396Z,98432.27
2022-10-25T11:07:34.498Z,98439.12
2022-10-25T11:12:41.173Z,98433.46
2022-10-25T11:17:49.051Z,98432.36
2022-10-25T11:23:01.284Z,98429.61
2022-10-25T11:28:25.812Z,98430.02
2022-10-25T11:33:36.960Z,98429.77
2022-10-25T11:38:48.196Z,98429.62
2022-10-25T11:43:59.246Z,98427.35
2022-10-25T11:49:14.850Z,98426.23
2022-10-25T11:54:23.171Z,98428.03
2022-10-25T11:59:35.906Z,98424.74
2022-10-25T12:04:54.000Z,98425.70
2022-10-25T12:10:02.556Z,98428.28
2022-10-25T12:15:13.081Z,98430.00
2022-10-25T12:20:19.487Z,98428.67
2022-10-25T12:25:25.566Z,98429.54
2022-10-25T12:30:30.517Z,98421.30
2022-10-25T12:35:38.797Z,98413.77
2022-10-25T12:40:47.371Z,98407.57
2022-10-25T12:45:58.606Z,98409.52
2022-10-25T12:51:18.833Z,98404.73
2022-10-25T12:56:30.551Z,98400.67
2022-10-25T13:01:40.755Z,98395.17
2022-10-25T13:06:46.468Z,98396.58
2022-10-25T13:11:59.396Z,98403.73
2022-10-25T13:17:17.988Z,98406.46
2022-10-25T13:22:52.849Z,98415.17
2022-10-25T13:34:51.687Z,98420.65
2022-10-25T13:39:55.646Z,98423.48
2022-10-25T13:45:06.330Z,98430.50
2022-10-25T13:50:19.081Z,98427.83
2022-10-25T13:55:37.118Z,98433.46
2022-10-25T14:00:51.635Z,98438.02
2022-10-25T14:06:08.887Z,98435.58
2022-10-25T14:11:14.503Z,98435.20
2022-10-25T14:16:23.296Z,98438.26
2022-10-25T14:21:27.627Z,98444.92
2022-10-25T14:26:32.406Z,98450.18
2022-10-25T14:31:36.609Z,98447.92
2022-10-25T14:36:41.381Z,98450.42
2022-10-25T14:41:51.627Z,98451.61
2022-10-25T14:46:56.356Z,98456.24
2022-10-25T14:52:03.557Z,98459.54
2022-10-25T14:57:09.081Z,98463.07
2022-10-25T15:02:16.628Z,98467.54
2022-10-25T15:07:21.937Z,98468.96
2022-10-25T15:12:26.883Z,98472.09
2022-10-25T15:17:31.440Z,98473.11
2022-10-25T15:22:42.256Z,98481.20
2022-10-25T15:27:46.908Z,98482.22
2022-10-25T15:32:51.291Z,98482.77
2022-10-25T15:37:56.476Z,98477.98
2022-10-25T15:43:00.831Z,98476.73
2022-10-25T15:48:05.947Z,98482.38
2022-10-25T15:53:11.447Z,98493.05
2022-10-25T15:58:15.767Z,98499.19
2022-10-25T16:03:20.706Z,98497.68
2022-10-25T16:08:24.711Z,98503.41
2022-10-25T16:13:31.646Z,98505.06
2022-10-25T16:18:35.921Z,98511.73
2022-10-25T16:23:40.037Z,98511.98
2022-10-25T16:28:44.149Z,98515.04
2022-10-25T16:33:48.599Z,98516.52
2022-10-25T16:38:52.952Z,98520.15
2022-10-25T16:43:57.581Z,98525.71
2022-10-25T16:49:04.576Z,98530.65
2022-10-25T16:54:09.121Z,98531.66
2022-10-25T16:59:13.717Z,98533.10
2022-10-25T17:04:18.060Z,98541.17
2022-10-25T17:09:22.394Z,98543.99
2022-10-25T17:14:26.351Z,98542.03
2022-10-25T17:19:30.846Z,98546.02
2022-10-25T17:24:37.148Z,98553.58
2022-10-25T17:29:41.084Z,98558.36
2022-10-25T17:34:45.297Z,98564.31
2022-10-25T17:39:49.651Z,98568.80
2022-10-25T17:44:54.358Z,98566.44
2022-10-25T17:50:01.578Z,98562.13
2022-10-25T17:55:07.681Z,98568.95
2022-10-25T18:00:13.847Z,98575.95
2022-10-25T18:05:20.907Z,98580.27
2022-10-25T18:10:25.356Z,98587.55
2022-10-25T18:15:29.770Z,98584.81
2022-10-25T18:20:33.946Z,98592.11
2022-10-25T18:25:38.158Z,98595.17
2022-10-25T18:30:42.096Z,98595.89
2022-10-25T18:35:46.188Z,98592.27
2022-10-25T18:40:50.426Z,98594.80
2022-10-25T18:45:57.538Z,98587.48
2022-10-25T18:51:04.527Z,98590.95
2022-10-25T18:56:09.922Z,98595.34
2022-10-25T19:01:16.366Z,98597.45
2022-10-25T19:06:20.846Z,98601.05
2022-10-25T19:11:25.280Z,98604.99
2022-10-25T19:16:29.420Z,98605.16
2022-10-25T19:21:33.695Z,98605.54
2022-10-25T19:26:37.528Z,98609.63
2022-10-25T19:31:41.600Z,98608.91
2022-10-25T19:36:45.822Z,98609.63
2022-10-25T19:41:50.180Z,98608.77
2022-10-25T19:46:54.251Z,98617.33
2022-10-25T19:51:58.506Z,98614.80
2022-10-25T19:57:03.178Z,98608.67
2022-10-25T20:02:07.615Z,98613.55
2022-10-25T20:07:11.817Z,98623.13
2022-10-25T20:12:16.330Z,98618.88
2022-10-25T20:17:20.867Z,98622.66
2022-10-25T20:22:25.308Z,98619.36
2022-10-25T20:27:29.648Z,98624.69
2022-10-25T20:32:33.887Z,98632.62
2022-10-25T20:37:37.999Z,98635.45
2022-10-25T20:42:42.136Z,98635.77
2022-10-25T20:47:50.239Z,98634.66
2022-10-25T20:53:10.736Z,98636.21
2022-10-25T20:58:15.497Z,98641.33
2022-10-25T21:03:19.751Z,98642.34
2022-10-25T21:08:24.117Z,98648.23
2022-10-25T21:13:29.702Z,98648.70
2022-10-25T21:18:33.977Z,98656.16
2022-10-25T21:23:38.480Z,98653.66
2022-10-25T21:28:43.048Z,98648.86
2022-10-25T21:33:50.037Z,98648.02
2022-10-25T21:38:56.023Z,98645.02
2022-10-25T21:44:00.487Z,98645.80
2022-10-25T21:49:04.987Z,98646.98
2022-10-25T21:54:09.019Z,98646.66
2022-10-25T21:59:13.142Z,98646.75
2022-10-25T22:04:17.580Z,98643.61
2022-10-25T22:09:21.809Z,98641.64
2022-10-25T22:14:26.038Z,98645.66
2022-10-25T22:19:30.609Z,98643.70
2022-10-25T22:24:34.828Z,98649.73
2022-10-25T22:29:38.940Z,98650.43
2022-10-25T22:34:42.957Z,98647.94
2022-10-25T22:39:46.943Z,98649.11
2022-10-25T22:44:51.133Z,98649.66
2022-10-25T22:49:55.698Z,98650.05
2022-10-25T22:54:59.790Z,98648.56
2022-10-25T23:00:03.912Z,98652.87
2022-10-25T23:05:08.789Z,98656.09
2022-10-25T23:10:14.313Z,98660.88
2022-10-25T23:15:18.260Z,98666.52
2022-10-25T23:20:22.390Z,98672.80
2022-10-25T23:25:26.329Z,98673.68
2022-10-25T23:30:33.712Z,98674.86
2022-10-25T23:35:38.368Z,98676.35
2022-10-25T23:40:46.267Z,98679.09
2022-10-25T23:45:50.447Z,98681.53
2022-10-25T23:50:57.825Z,98683.95
2022-10-25T23:56:02.787Z,98683.19
